This is the latest recevied weather packets stored in our database for station/object AI5BL. If no packets are shown the sender has not sent any weather packets the latest 10 day(s).
| Time | Temp. | Humidity | Pressure | Rain* | Wind** | Luminosity | Snow |
|---|---|---|---|---|---|---|---|
| 1777774994 | 11.67° C | 89% | 1020.5 hPa | 0 mm | - | 0 W/m² | - |
| 1777774691 | 11.67° C | 90% | 1020.4 hPa | 0 mm | - | 0 W/m² | - |
| 1777774387 | 11.67° C | 89% | 1020.3 hPa | 0 mm | - | 0 W/m² | - |
| 1777774085 | 11.67° C | 89% | 1020.4 hPa | 0 mm | - | 0 W/m² | - |
| 1777773786 | 11.67° C | 87% | 1020.5 hPa | 0 mm | - | 0 W/m² | - |
| 1777773176 | 11.67° C | 86% | 1020.2 hPa | 0 mm | - | 0 W/m² | - |
| 1777772871 | 12.22° C | 85% | 1020.2 hPa | 0 mm | - | 0 W/m² | - |
| 1777771964 | 12.78° C | 83% | 1020 hPa | 0 mm | - | 0 W/m² | - |
| 1777771055 | 13.89° C | 77% | 1019.9 hPa | 0 mm | - | 0 W/m² | - |
| 1777770145 | 15° C | 73% | 1019.7 hPa | 0 mm | - | 1 W/m² | - |
| 1777769540 | 15° C | 73% | 1019.7 hPa | 0 mm | - | 1 W/m² | - |
| 1777768631 | 18.33° C | 55% | 1019.2 hPa | 0 mm | - | 17 W/m² | - |
| 1777768328 | 18.33° C | 55% | 1019.2 hPa | 0 mm | - | 17 W/m² | - |
| 1777767721 | 18.33° C | 55% | 1019 hPa | 0 mm | - | 17 W/m² | - |
| 1777767417 | 18.33° C | 55% | 1019 hPa | 0 mm | - | 17 W/m² | - |
| 1777767114 | 18.33° C | 55% | 1019 hPa | 0 mm | - | 17 W/m² | - |
| 1777766812 | 18.33° C | 55% | 1019 hPa | 0 mm | - | 17 W/m² | - |
| 1777766509 | 18.33° C | 55% | 1018.9 hPa | 0 mm | - | 17 W/m² | - |
| 1777766206 | 18.89° C | 51% | 1018.8 hPa | 0 mm | - | 19 W/m² | - |
| 1777764993 | 19.44° C | 46% | 1018.5 hPa | 0 mm | - | 23 W/m² | - |
| 1777764690 | 19.44° C | 46% | 1018.4 hPa | 0 mm | - | 28 W/m² | - |
| 1777764385 | 19.44° C | 48% | 1018.3 hPa | 0 mm | - | 25 W/m² | - |
| 1777764083 | 19.44° C | 47% | 1018.4 hPa | 0 mm | - | 26 W/m² | - |
| 1777763780 | 20° C | 47% | 1018.4 hPa | 0 mm | - | 27 W/m² | - |
| 1777761660 | 20° C | 46% | 1018 hPa | 0 mm | - | 31 W/m² | - |
* Rain latest hour (hover to see other rain measurements)
** Current wind speed in m/s (hover to see current wind gust speed)